広島 の空港の天気 - METARとTAF

広島空港 ( RJOA / HIJ ) - 広島県三原市
飛行場実況気象(Metar)
観測時間12/15 21:00 JST (12/15 12:00 UTC)
風向・風速東北東 1m/s
視程10km以上
天気現象
少しの雲 雲底高度 460m
気温4℃
湿度75%
気圧1028hPa
METARRJOA 151200Z 07002KT 9999 FEW015 04/00 Q1028
過去の天気等 Google飛行場航空写真 Wunderground天気予報

過去48時間のMETAR

飛行場予報(TAF)
発表時間: 12/15 20:05 JST (12/15 11:05 UTC)
予報対象時間: 15日21時 JST ~ 17日3時 JST
風向・風速東北東 3m/s
視程10km以上
少しの雲 雲底高度 610m
16日12時 JST ~ 16日15時 JST に徐々に
視程3000m
天気現象弱い雨 もや 散在した霧
少しの雲 雲底高度 0m
全天の4割程度の雲 雲底高度 150m
全天の8割程度の雲 雲底高度 240m
16日15時 JST ~ 16日21時 JST に一時的に
視程1500m
天気現象雨 もや 散在した霧
少しの雲 雲底高度 0m
全天の4割程度の雲 雲底高度 90m
全天の8割程度の雲 雲底高度 150m
16日18時 JST ~ 16日21時 JST に徐々に
風向・風速北西 2m/s
17日0時 JST ~ 17日3時 JST に徐々に
視程6000m
天気現象運行に影響にある天気現象が終了
少しの雲 雲底高度 240m
全天の4割程度の雲 雲底高度 1070m
TAF RJOA 151105Z 1512/1618 06005KT 9999 FEW020
BECMG 1603/1606 3000 -RA BR BCFG FEW000 SCT005 BKN008
TEMPO 1606/1612 1500 RA BR BCFG FEW000 SCT003 BKN005
BECMG 1609/1612 32004KT
BECMG 1615/1618 6000 NSW FEW008 SCT035
日本の空港のMETAR・TAFへのリンク

RJTT 東京国際空港
RJAA 新東京国際空港
RJBB 関西国際空港
RJOO 大阪空港
RJGG 中部国際空港
RJCC 新千歳空港
RJFF 福岡空港
ROAH 那覇空港


RJEC 旭川空港
RJCH 函館空港
RJCK 釧路空港
RJCM 女満別空港
RJCB 帯広空港
RJSA 青森空港
RJSS 仙台空港
RJSK 秋田空港
RJSF 福島空港
RJAH 茨城空港
RJSN 新潟空港
RJNT 富山空港
RJNK 小松飛行場
RJNS 静岡空港
RJOH 美保飛行場
RJOC 出雲空港
RJOB 岡山空港
RJOA 広島空港
RJOI 岩国飛行場
RJOT 高松空港
RJOM 松山空港
RJOK 高知空港
RJFR 北九州空港
RJFT 熊本空港
RJFU 長崎空港
RJFS 佐賀空港
RJFO 大分空港
RJFM 宮崎空港
RJFK 鹿児島空港
ROIG 石垣島空港
RJTY 横田飛行場
ROTM 普天間飛行場
RODN 嘉手納飛行場